X  Schließen METAR Luftfahrt Wetterdaten     EDDL Düsseldorf Airport
Temperatur
13°C Temperatur
7°C Taupunkt
67% Feuchtigkeit



Wind
11 km/h
7 MPS
3 M/S
6 KTS



50°
NO
Aktuelle Wetterlage

Teilweise bewölkt Teilweise bewölkt
Luftdruck 1024.92 (hPa) - 30.27 (inHg)
Sichtweite 6.2 (Meile) - 10 (Km)
Flughafen
Flughafen Code EDDL

Position : Düsseldorf Airport
Entfernung: 10 (Km)

Metar:
EDDL 202220Z 05006KT 9999 FEW042 BKN046 13/07 Q1025 NOSIG

Zeit: 21-09-2021 00:20 CEST